createdAt,value
2019-04-29T00:01:47.696Z,3.27
2019-04-29T00:04:16.977Z,3.85
2019-04-29T00:06:46.253Z,4.62
2019-04-29T00:09:16.598Z,3.47
2019-04-29T00:11:45.875Z,3.40
2019-04-29T00:14:15.083Z,2.87
2019-04-29T00:16:59.846Z,3.93
2019-04-29T00:19:46.170Z,3.60
2019-04-29T00:22:15.464Z,4.20
2019-04-29T00:24:44.839Z,4.50
2019-04-29T00:27:14.010Z,3.90
2019-04-29T00:29:43.251Z,3.08
2019-04-29T00:32:12.666Z,2.97
2019-04-29T00:34:41.924Z,3.37
2019-04-29T00:37:30.377Z,2.55
2019-04-29T00:40:33.601Z,2.92
2019-04-29T00:43:10.633Z,2.37
2019-04-29T00:45:40.134Z,3.07
2019-04-29T00:48:09.385Z,4.67
2019-04-29T00:50:38.561Z,2.98
2019-04-29T00:53:07.770Z,3.12
2019-04-29T00:55:36.939Z,3.42
2019-04-29T00:58:06.261Z,4.00
2019-04-29T01:00:38.835Z,4.80
2019-04-29T01:03:08.281Z,4.15
2019-04-29T01:05:37.981Z,4.15
2019-04-29T01:08:07.383Z,3.45
2019-04-29T01:10:36.669Z,3.52
2019-04-29T01:13:05.786Z,5.42
2019-04-29T01:15:35.040Z,5.37
2019-04-29T01:18:04.277Z,3.62
2019-04-29T01:20:33.472Z,2.83
2019-04-29T01:23:02.673Z,3.47
2019-04-29T01:25:31.852Z,3.17
2019-04-29T01:28:08.451Z,2.55
2019-04-29T01:31:16.820Z,3.37
2019-04-29T01:33:47.902Z,4.85
2019-04-29T01:36:45.258Z,3.58
2019-04-29T01:39:15.630Z,2.77
2019-04-29T01:42:10.097Z,2.65
2019-04-29T01:44:39.577Z,2.80
2019-04-29T01:47:08.805Z,3.15
2019-04-29T01:49:38.036Z,2.60
2019-04-29T01:52:07.227Z,2.57
2019-04-29T01:54:36.379Z,4.83
2019-04-29T01:57:05.600Z,3.53
2019-04-29T01:59:34.797Z,2.62
2019-04-29T02:02:04.185Z,3.90
2019-04-29T02:04:33.356Z,4.95
2019-04-29T02:07:02.610Z,4.60
2019-04-29T02:09:50.369Z,4.33
2019-04-29T02:12:19.557Z,5.13
2019-04-29T02:14:48.719Z,3.10
2019-04-29T02:17:18.041Z,3.70
2019-04-29T02:19:47.291Z,4.08
2019-04-29T02:22:35.596Z,4.85
2019-04-29T02:25:12.816Z,4.33
2019-04-29T02:27:42.276Z,5.47
2019-04-29T02:30:13.155Z,3.62
2019-04-29T02:32:42.525Z,3.10
2019-04-29T02:35:11.675Z,3.22
2019-04-29T02:37:42.550Z,4.72
2019-04-29T02:40:19.165Z,3.75
2019-04-29T02:43:03.589Z,3.83
2019-04-29T02:45:34.471Z,5.20
2019-04-29T02:48:03.660Z,4.72
2019-04-29T02:50:32.803Z,4.50
2019-04-29T02:53:02.007Z,5.10
2019-04-29T02:55:35.699Z,6.08
2019-04-29T02:58:17.316Z,5.33
2019-04-29T03:01:05.702Z,6.15
2019-04-29T03:03:53.910Z,4.87
2019-04-29T03:06:23.322Z,5.42
2019-04-29T03:08:52.513Z,3.92
2019-04-29T03:11:22.129Z,3.35
2019-04-29T03:13:51.366Z,3.42
2019-04-29T03:16:20.643Z,4.20
2019-04-29T03:18:54.094Z,4.80
2019-04-29T03:21:30.201Z,4.22
2019-04-29T03:23:59.387Z,5.30
2019-04-29T03:26:28.763Z,4.25
2019-04-29T03:28:57.909Z,3.83
2019-04-29T03:31:27.204Z,4.28
2019-04-29T03:33:56.367Z,5.42
2019-04-29T03:36:25.544Z,5.37
2019-04-29T03:38:54.846Z,4.28
2019-04-29T03:41:24.101Z,5.53
2019-04-29T03:43:53.368Z,3.62
2019-04-29T03:46:22.484Z,4.28
2019-04-29T03:48:51.695Z,3.67
2019-04-29T03:51:20.887Z,3.37
2019-04-29T03:53:50.134Z,5.25
2019-04-29T03:56:19.342Z,3.20
2019-04-29T03:58:48.615Z,5.27
2019-04-29T04:01:26.610Z,5.35
2019-04-29T04:04:03.426Z,3.87
2019-04-29T04:06:43.690Z,5.55
2019-04-29T04:09:18.748Z,3.40
2019-04-29T04:11:47.896Z,4.70
2019-04-29T04:14:17.075Z,4.40
2019-04-29T04:17:20.373Z,4.28
2019-04-29T04:19:48.624Z,6.83
2019-04-29T04:22:17.915Z,7.70
2019-04-29T04:24:47.189Z,5.53
2019-04-29T04:27:16.393Z,6.20
2019-04-29T04:29:45.531Z,5.05
2019-04-29T04:32:14.749Z,5.95
2019-04-29T04:34:44.016Z,5.10
2019-04-29T04:37:13.236Z,4.42
2019-04-29T04:39:43.616Z,4.42
2019-04-29T04:42:12.796Z,3.83
2019-04-29T04:44:48.142Z,5.92
2019-04-29T04:47:18.932Z,5.97
2019-04-29T04:49:48.335Z,9.53
2019-04-29T04:52:17.511Z,10.03
2019-04-29T04:54:48.651Z,10.78
2019-04-29T04:57:17.847Z,8.08
2019-04-29T04:59:47.026Z,6.95
2019-04-29T05:02:16.243Z,8.00
2019-04-29T05:04:45.471Z,6.05
2019-04-29T05:07:14.639Z,9.93
2019-04-29T05:09:43.845Z,10.08
2019-04-29T05:12:14.255Z,6.70
2019-04-29T05:14:43.390Z,6.00
2019-04-29T05:17:12.564Z,5.70
2019-04-29T05:19:41.803Z,5.37
2019-04-29T05:22:10.986Z,6.53
2019-04-29T05:24:40.189Z,7.17
2019-04-29T05:27:09.468Z,6.70
2019-04-29T05:29:38.644Z,6.92
2019-04-29T05:32:07.878Z,5.45
2019-04-29T05:34:41.690Z,5.72
2019-04-29T05:37:33.386Z,7.72
2019-04-29T05:40:02.796Z,5.22
2019-04-29T05:42:31.978Z,4.72
2019-04-29T05:45:18.423Z,3.80
2019-04-29T05:47:56.611Z,4.62
2019-04-29T05:50:52.064Z,5.67
2019-04-29T05:53:36.597Z,9.90
2019-04-29T05:56:05.791Z,16.77
2019-04-29T05:58:37.898Z,15.35
2019-04-29T06:01:13.775Z,12.78
2019-04-29T06:03:44.524Z,9.95
2019-04-29T06:06:13.944Z,9.38
2019-04-29T06:08:43.291Z,7.83
2019-04-29T06:11:12.504Z,6.70
2019-04-29T06:13:41.729Z,8.27
2019-04-29T06:16:10.933Z,6.40
2019-04-29T06:18:41.055Z,6.97
2019-04-29T06:21:10.288Z,5.77
2019-04-29T06:23:39.523Z,7.00
2019-04-29T06:26:08.711Z,6.27
2019-04-29T06:28:38.002Z,5.93
2019-04-29T06:31:07.210Z,5.67
2019-04-29T06:33:36.410Z,7.43
2019-04-29T06:36:06.000Z,6.23
2019-04-29T06:38:35.221Z,5.17
2019-04-29T06:41:05.582Z,5.10
2019-04-29T06:43:35.360Z,6.70
2019-04-29T06:46:04.577Z,3.37
2019-04-29T06:48:33.806Z,3.50
2019-04-29T06:51:03.036Z,6.57
2019-04-29T06:53:32.269Z,5.57
2019-04-29T06:56:01.557Z,4.13
2019-04-29T06:58:32.512Z,7.00
2019-04-29T07:01:03.128Z,5.53
2019-04-29T07:03:32.523Z,5.00
2019-04-29T07:06:01.946Z,5.67
2019-04-29T07:08:31.535Z,4.33
2019-04-29T07:11:02.625Z,4.47
2019-04-29T07:13:31.845Z,4.12
2019-04-29T07:16:01.174Z,4.95
2019-04-29T07:18:30.378Z,3.77
2019-04-29T07:20:59.565Z,3.67
2019-04-29T07:23:28.761Z,4.58
2019-04-29T07:25:57.976Z,4.55
2019-04-29T07:28:27.171Z,3.53
2019-04-29T07:31:01.554Z,4.35
2019-04-29T07:33:27.436Z,6.08
2019-04-29T07:36:10.096Z,4.85
2019-04-29T07:38:40.688Z,3.95
2019-04-29T07:40:58.888Z,6.67
2019-04-29T07:43:28.151Z,4.15
2019-04-29T07:46:16.288Z,3.95
2019-04-29T07:48:44.265Z,5.63
2019-04-29T07:51:14.433Z,5.40
2019-04-29T07:53:45.587Z,5.95
2019-04-29T07:56:14.919Z,5.30
2019-04-29T07:58:44.119Z,5.55
2019-04-29T08:01:13.355Z,6.50
2019-04-29T08:03:42.514Z,6.05
2019-04-29T08:06:12.005Z,5.03
2019-04-29T08:08:54.372Z,5.08
2019-04-29T08:11:13.295Z,4.20
2019-04-29T08:13:44.176Z,5.60
2019-04-29T08:16:17.130Z,5.62
2019-04-29T08:18:44.425Z,5.35
2019-04-29T08:21:14.463Z,4.33
2019-04-29T08:23:44.642Z,5.23
2019-04-29T08:26:13.820Z,3.97
2019-04-29T08:28:43.013Z,4.80
2019-04-29T08:31:12.224Z,3.73
2019-04-29T08:33:42.451Z,5.63
2019-04-29T08:36:12.264Z,4.87
2019-04-29T08:38:41.460Z,4.45
2019-04-29T08:41:10.708Z,4.97
2019-04-29T08:44:15.253Z,5.43
2019-04-29T08:46:33.952Z,5.93
2019-04-29T08:49:06.108Z,6.97
2019-04-29T08:51:34.030Z,5.13
2019-04-29T08:54:03.191Z,4.00
2019-04-29T08:56:32.355Z,3.90
2019-04-29T08:59:01.518Z,6.20
2019-04-29T09:01:34.055Z,4.70
2019-04-29T09:04:02.009Z,3.97
2019-04-29T09:06:32.548Z,5.37
2019-04-29T09:09:04.869Z,4.33
2019-04-29T09:11:33.504Z,5.33
2019-04-29T09:16:30.962Z,5.53
2019-04-29T09:19:00.163Z,4.17
2019-04-29T09:21:29.466Z,7.75
2019-04-29T09:23:58.767Z,5.58
2019-04-29T09:26:33.901Z,4.87
2019-04-29T09:29:22.117Z,8.38
2019-04-29T09:31:51.313Z,6.80
2019-04-29T09:34:24.817Z,7.00
2019-04-29T09:36:51.390Z,6.65
2019-04-29T09:39:21.379Z,5.42
2019-04-29T09:42:13.089Z,5.15
2019-04-29T09:44:58.248Z,5.97
2019-04-29T09:47:27.881Z,5.87
2019-04-29T09:49:57.384Z,5.70
2019-04-29T09:52:26.532Z,4.90
2019-04-29T09:54:55.779Z,6.30
2019-04-29T09:57:24.977Z,7.67
2019-04-29T10:00:05.346Z,14.93
2019-04-29T10:02:37.381Z,6.80
2019-04-29T10:05:24.788Z,6.75
2019-04-29T10:07:53.961Z,6.62
2019-04-29T10:10:23.245Z,6.50
2019-04-29T10:12:54.095Z,4.75
2019-04-29T10:15:32.166Z,6.03
2019-04-29T10:18:11.672Z,4.72
2019-04-29T10:20:48.158Z,4.58
2019-04-29T10:23:17.514Z,5.00
2019-04-29T10:25:46.745Z,5.05
2019-04-29T10:28:15.951Z,7.22
2019-04-29T10:30:45.326Z,5.70
2019-04-29T10:33:17.704Z,5.12
2019-04-29T10:35:46.306Z,4.97
2019-04-29T10:38:15.479Z,6.03
2019-04-29T10:41:00.646Z,7.55
2019-04-29T10:43:58.665Z,5.47
2019-04-29T10:46:46.829Z,6.30
2019-04-29T10:49:22.993Z,4.40
2019-04-29T10:51:52.213Z,6.17
2019-04-29T10:54:21.387Z,5.75
2019-04-29T10:56:50.662Z,5.97
2019-04-29T10:59:19.848Z,5.20
2019-04-29T11:02:49.380Z,5.00
2019-04-29T11:05:36.383Z,4.85
2019-04-29T11:08:21.437Z,6.65
2019-04-29T11:10:50.821Z,6.58
2019-04-29T11:13:20.061Z,4.73
2019-04-29T11:15:51.189Z,4.70
2019-04-29T11:18:23.306Z,3.95
2019-04-29T11:20:53.656Z,4.87
2019-04-29T11:23:34.004Z,5.83
2019-04-29T11:26:31.252Z,5.70
2019-04-29T11:29:00.832Z,4.87
2019-04-29T11:31:30.187Z,4.90
2019-04-29T11:34:18.362Z,8.28
2019-04-29T11:36:47.620Z,5.62
2019-04-29T11:39:17.000Z,5.77
2019-04-29T11:41:46.297Z,4.40
2019-04-29T11:44:15.583Z,6.15
2019-04-29T11:46:49.084Z,5.77
2019-04-29T11:49:17.651Z,5.25
2019-04-29T11:52:08.471Z,4.72
2019-04-29T11:54:20.202Z,5.58
2019-04-29T11:56:49.484Z,5.03
2019-04-29T11:59:36.147Z,4.25
2019-04-29T12:02:44.749Z,5.67
2019-04-29T12:05:14.472Z,4.58
2019-04-29T12:07:43.837Z,7.03
2019-04-29T12:10:13.177Z,6.25
2019-04-29T12:12:43.622Z,5.03
2019-04-29T12:15:28.969Z,5.43
2019-04-29T12:18:15.486Z,4.17
2019-04-29T12:20:53.184Z,5.08
2019-04-29T12:23:22.424Z,4.93
2019-04-29T12:25:51.627Z,5.28
2019-04-29T12:28:20.846Z,4.35
2019-04-29T12:30:51.743Z,4.95
2019-04-29T12:33:44.189Z,4.05
2019-04-29T12:36:16.307Z,4.72
2019-04-29T12:39:02.265Z,5.08
2019-04-29T12:41:56.310Z,4.40
2019-04-29T12:44:35.473Z,4.08
2019-04-29T12:47:10.829Z,5.33
2019-04-29T12:49:42.436Z,5.47
2019-04-29T12:52:11.383Z,4.53
2019-04-29T12:54:41.935Z,3.77
2019-04-29T12:57:23.572Z,5.57
2019-04-29T12:59:54.517Z,4.43
2019-04-29T13:02:42.028Z,3.70
2019-04-29T13:05:25.988Z,4.97
2019-04-29T13:08:03.465Z,2.40
2019-04-29T13:10:53.166Z,5.17
2019-04-29T13:13:22.425Z,4.60
2019-04-29T13:16:09.019Z,4.63
2019-04-29T13:18:48.957Z,2.93
2019-04-29T13:21:17.358Z,3.70
2019-04-29T13:23:55.456Z,4.97
2019-04-29T13:26:27.800Z,5.43
2019-04-29T13:29:04.001Z,4.50
2019-04-29T13:38:49.063Z,3.37
2019-04-29T13:41:23.889Z,4.83
2019-04-29T13:43:50.641Z,6.15
2019-04-29T13:46:51.192Z,6.12
2019-04-29T13:49:35.657Z,8.10
2019-04-29T13:52:06.209Z,5.22
2019-04-29T13:54:37.352Z,5.12
2019-04-29T13:57:09.497Z,5.30
2019-04-29T13:59:49.230Z,6.42
2019-04-29T14:02:31.321Z,6.17
2019-04-29T14:05:00.174Z,6.93
2019-04-29T14:07:27.937Z,5.85
2019-04-29T14:09:57.225Z,7.58
2019-04-29T14:12:47.733Z,8.70
2019-04-29T14:14:58.658Z,6.33
2019-04-29T14:17:31.707Z,5.25
2019-04-29T14:19:59.903Z,6.50
2019-04-29T14:22:29.205Z,4.50
2019-04-29T14:24:58.553Z,6.63
2019-04-29T14:27:27.852Z,7.63
2019-04-29T14:29:57.066Z,5.47
2019-04-29T14:32:36.056Z,4.47
2019-04-29T14:35:07.271Z,6.33
2019-04-29T14:37:36.621Z,5.90
2019-04-29T14:40:07.569Z,6.03
2019-04-29T14:42:57.091Z,4.65
2019-04-29T14:45:34.038Z,6.10
2019-04-29T14:48:20.903Z,5.92
2019-04-29T14:50:54.072Z,6.28
2019-04-29T14:53:24.105Z,6.92
2019-04-29T14:55:52.333Z,5.07
2019-04-29T14:58:21.710Z,8.43
2019-04-29T15:01:06.782Z,6.45
2019-04-29T15:03:52.776Z,6.37
2019-04-29T15:06:22.095Z,7.08
2019-04-29T15:08:51.475Z,4.75
2019-04-29T15:11:31.597Z,4.62
2019-04-29T15:13:59.144Z,5.15
2019-04-29T15:16:35.010Z,6.60
2019-04-29T15:19:26.468Z,7.33
2019-04-29T15:22:02.572Z,4.95
2019-04-29T15:24:32.572Z,4.90
2019-04-29T15:27:03.183Z,6.20
2019-04-29T15:29:33.574Z,3.98
2019-04-29T15:32:02.990Z,5.37
2019-04-29T15:34:32.180Z,4.37
2019-04-29T15:37:01.443Z,3.10
2019-04-29T15:39:30.771Z,4.12
2019-04-29T15:42:01.966Z,4.70
2019-04-29T15:44:31.013Z,3.67
2019-04-29T15:47:00.608Z,5.30
2019-04-29T15:49:30.041Z,4.13
2019-04-29T15:51:59.289Z,4.40
2019-04-29T15:54:28.524Z,4.80
2019-04-29T15:56:57.729Z,7.47
2019-04-29T15:59:27.169Z,3.77
2019-04-29T16:01:59.075Z,3.62
2019-04-29T16:04:33.641Z,4.70
2019-04-29T16:07:26.136Z,3.90
2019-04-29T16:10:20.829Z,4.97
2019-04-29T16:12:54.456Z,5.58
2019-04-29T16:15:23.757Z,4.70
2019-04-29T16:17:52.960Z,5.08
2019-04-29T16:20:22.199Z,5.33
2019-04-29T16:22:54.087Z,5.25
2019-04-29T16:25:22.533Z,6.47
2019-04-29T16:27:53.336Z,6.07
2019-04-29T16:30:26.084Z,5.70
2019-04-29T16:32:54.412Z,6.80
2019-04-29T16:35:26.020Z,5.12
2019-04-29T16:37:54.589Z,8.95
2019-04-29T16:40:25.733Z,7.15
2019-04-29T16:43:06.643Z,7.17
2019-04-29T16:45:53.085Z,7.37
2019-04-29T16:48:22.539Z,6.72
2019-04-29T16:50:51.790Z,6.05
2019-04-29T16:53:20.988Z,7.70
2019-04-29T16:55:50.245Z,6.50
2019-04-29T16:58:19.465Z,6.97
2019-04-29T17:00:52.822Z,5.78
2019-04-29T17:03:20.259Z,7.00
2019-04-29T17:05:49.547Z,6.37
2019-04-29T17:08:21.536Z,6.15
2019-04-29T17:10:59.243Z,8.00
2019-04-29T17:13:28.475Z,6.75
2019-04-29T17:15:57.763Z,6.83
2019-04-29T17:18:26.940Z,8.47
2019-04-29T17:21:04.600Z,6.78
2019-04-29T17:23:27.239Z,7.65
2019-04-29T17:25:56.611Z,7.50
2019-04-29T17:28:34.964Z,6.42
2019-04-29T17:31:18.818Z,6.60
2019-04-29T17:34:01.067Z,7.33
2019-04-29T17:36:30.526Z,7.97
2019-04-29T17:38:59.812Z,7.75
2019-04-29T17:41:29.094Z,8.23
2019-04-29T17:44:24.497Z,7.03
2019-04-29T17:47:21.562Z,6.75
2019-04-29T17:49:56.330Z,13.80
2019-04-29T17:52:29.766Z,8.20
2019-04-29T17:55:24.968Z,6.67
2019-04-29T17:58:22.104Z,6.53
2019-04-29T18:01:08.861Z,5.80
2019-04-29T18:03:57.037Z,6.63
2019-04-29T18:06:30.965Z,6.33
2019-04-29T18:09:27.140Z,6.42
2019-04-29T18:11:57.777Z,5.30
2019-04-29T18:14:36.741Z,4.55
2019-04-29T18:16:58.721Z,4.12
2019-04-29T18:19:34.901Z,6.25
2019-04-29T18:22:35.036Z,3.98
2019-04-29T18:25:15.130Z,4.95
2019-04-29T18:27:45.143Z,5.78
2019-04-29T18:30:18.032Z,4.22
2019-04-29T18:32:46.642Z,5.35
2019-04-29T18:35:17.183Z,7.15
2019-04-29T18:37:46.342Z,6.17
2019-04-29T18:40:16.132Z,5.80
2019-04-29T18:42:46.905Z,5.65
2019-04-29T18:45:16.987Z,5.83
2019-04-29T18:47:46.244Z,4.30
2019-04-29T18:50:15.947Z,5.83
2019-04-29T18:52:45.891Z,5.10
2019-04-29T18:55:15.191Z,4.23
2019-04-29T18:57:44.456Z,5.97
2019-04-29T19:00:19.308Z,4.08
2019-04-29T19:02:48.116Z,7.65
2019-04-29T19:05:27.787Z,6.03
2019-04-29T19:07:56.576Z,6.70
2019-04-29T19:10:32.888Z,4.70
2019-04-29T19:13:00.043Z,4.65
2019-04-29T19:15:26.068Z,6.60
2019-04-29T19:17:59.761Z,5.70
2019-04-29T19:20:26.479Z,5.20
2019-04-29T19:23:05.347Z,6.15
2019-04-29T19:25:26.928Z,6.33
2019-04-29T19:27:56.243Z,6.33
2019-04-29T19:30:29.089Z,6.72
2019-04-29T19:33:00.519Z,6.42
2019-04-29T19:35:29.590Z,6.45
2019-04-29T19:37:58.659Z,5.95
2019-04-29T19:40:30.507Z,7.87
2019-04-29T19:42:59.303Z,6.33
2019-04-29T19:45:28.573Z,5.17
2019-04-29T19:47:57.846Z,5.92
2019-04-29T19:50:27.057Z,4.65
2019-04-29T19:52:56.286Z,7.45
2019-04-29T19:55:27.828Z,4.72
2019-04-29T19:57:57.404Z,5.17
2019-04-29T20:00:29.452Z,9.33
2019-04-29T20:02:58.327Z,6.17
2019-04-29T20:05:40.505Z,7.87
2019-04-29T20:08:21.346Z,7.08
2019-04-29T20:10:46.211Z,7.55
2019-04-29T20:13:12.770Z,6.97
2019-04-29T20:15:49.318Z,6.20
2019-04-29T20:18:57.786Z,7.08
2019-04-29T20:21:24.819Z,6.03
2019-04-29T20:23:48.015Z,7.78
2019-04-29T20:26:28.668Z,5.83
2019-04-29T20:28:51.109Z,6.58
2019-04-29T20:31:22.325Z,5.73
2019-04-29T20:33:52.120Z,7.40
2019-04-29T20:36:37.450Z,7.58
2019-04-29T20:38:52.533Z,9.08
2019-04-29T20:41:38.127Z,7.97
2019-04-29T20:43:52.771Z,7.10
2019-04-29T20:46:22.210Z,7.33
2019-04-29T20:48:55.825Z,6.85
2019-04-29T20:51:23.264Z,7.10
2019-04-29T20:53:59.487Z,6.30
2019-04-29T20:56:34.662Z,5.60
2019-04-29T20:59:01.990Z,6.40
2019-04-29T21:01:38.175Z,8.05
2019-04-29T21:04:06.189Z,7.70
2019-04-29T21:06:39.223Z,9.60
2019-04-29T21:09:08.133Z,8.58
2019-04-29T21:11:45.571Z,9.73
2019-04-29T21:14:27.213Z,11.00
2019-04-29T21:16:57.544Z,13.60
2019-04-29T21:19:26.840Z,13.60
2019-04-29T21:21:56.099Z,11.70
2019-04-29T21:24:25.307Z,15.08
2019-04-29T21:26:55.044Z,14.30
2019-04-29T21:29:25.659Z,12.40
2019-04-29T21:31:58.402Z,16.62
2019-04-29T21:34:29.569Z,15.65
2019-04-29T21:37:11.938Z,15.00
2019-04-29T21:40:07.052Z,15.30
2019-04-29T21:42:39.390Z,15.28
2019-04-29T21:45:10.718Z,16.07
2019-04-29T21:47:47.355Z,12.23
2019-04-29T21:50:11.207Z,13.35
2019-04-29T21:52:40.422Z,16.67
2019-04-29T21:55:09.654Z,14.63
2019-04-29T21:57:38.829Z,14.83
2019-04-29T22:00:10.293Z,12.85
2019-04-29T22:02:41.607Z,13.40
2019-04-29T22:05:14.782Z,12.20
2019-04-29T22:07:44.577Z,13.80
2019-04-29T22:10:12.896Z,13.78
2019-04-29T22:12:42.130Z,11.33
2019-04-29T22:15:11.595Z,16.12
2019-04-29T22:17:40.790Z,16.70
2019-04-29T22:20:11.104Z,16.02
2019-04-29T22:22:40.634Z,14.43
2019-04-29T22:25:10.352Z,18.80
2019-04-29T22:27:41.213Z,19.23
2019-04-29T22:30:15.268Z,18.12
2019-04-29T22:32:42.370Z,17.48
2019-04-29T22:35:11.729Z,15.28
2019-04-29T22:37:40.925Z,13.30
2019-04-29T22:40:10.379Z,14.15
2019-04-29T22:42:48.818Z,16.90
2019-04-29T22:45:18.208Z,11.65
2019-04-29T22:47:47.568Z,13.08
2019-04-29T22:50:16.769Z,14.87
2019-04-29T22:52:45.982Z,17.42
2019-04-29T22:55:15.605Z,19.60
2019-04-29T22:57:44.905Z,22.25
2019-04-29T23:00:17.812Z,22.87
2019-04-29T23:02:47.000Z,19.60
2019-04-29T23:05:16.194Z,17.42
2019-04-29T23:07:45.630Z,19.32
2019-04-29T23:10:18.052Z,21.65
2019-04-29T23:12:49.253Z,17.23
2019-04-29T23:15:22.653Z,21.23
2019-04-29T23:17:50.849Z,18.98
2019-04-29T23:20:37.229Z,19.80
2019-04-29T23:23:11.204Z,27.27
2019-04-29T23:25:51.569Z,26.68
2019-04-29T23:28:22.404Z,25.25
2019-04-29T23:30:53.279Z,28.12
2019-04-29T23:33:23.993Z,31.15
2019-04-29T23:35:53.538Z,27.35
2019-04-29T23:38:22.738Z,30.83
2019-04-29T23:40:54.628Z,32.70
2019-04-29T23:43:25.342Z,35.83
2019-04-29T23:45:59.042Z,28.27
2019-04-29T23:48:38.094Z,30.70
2019-04-29T23:50:58.202Z,27.40
2019-04-29T23:53:27.322Z,29.07
2019-04-29T23:56:00.254Z,29.02
2019-04-29T23:58:38.580Z,26.77
